createdAt,value
2023-10-10T00:01:07.889Z,6.40
2023-10-10T00:03:40.978Z,6.10
2023-10-10T00:06:09.348Z,6.90
2023-10-10T00:08:40.940Z,6.50
2023-10-10T00:11:14.897Z,3.80
2023-10-10T00:13:43.648Z,11.40
2023-10-10T00:16:26.827Z,8.60
2023-10-10T00:18:57.065Z,8.10
2023-10-10T00:21:24.248Z,8.80
2023-10-10T00:23:54.266Z,6.40
2023-10-10T00:26:26.330Z,4.50
2023-10-10T00:28:58.017Z,5.40
2023-10-10T00:31:27.399Z,5.80
2023-10-10T00:33:55.625Z,6.00
2023-10-10T00:36:36.143Z,5.40
2023-10-10T00:39:13.302Z,6.00
2023-10-10T00:41:49.870Z,3.90
2023-10-10T00:44:18.178Z,3.10
2023-10-10T00:46:55.647Z,4.10
2023-10-10T00:49:26.738Z,3.60
2023-10-10T00:52:00.477Z,9.10
2023-10-10T00:54:32.278Z,5.40
2023-10-10T00:57:01.040Z,4.90
2023-10-10T00:59:45.422Z,5.60
2023-10-10T01:02:17.170Z,2.60
2023-10-10T01:04:53.668Z,4.00
2023-10-10T01:07:22.897Z,4.10
2023-10-10T01:10:10.447Z,5.40
2023-10-10T01:12:37.493Z,3.70
2023-10-10T01:15:26.156Z,3.50
2023-10-10T01:17:57.663Z,4.60
2023-10-10T01:20:37.126Z,3.70
2023-10-10T01:23:04.135Z,5.70
2023-10-10T01:25:33.389Z,3.80
2023-10-10T01:28:14.260Z,4.50
2023-10-10T01:31:04.286Z,3.70
2023-10-10T01:33:36.859Z,2.30
2023-10-10T01:36:13.346Z,3.70
2023-10-10T01:38:44.930Z,4.70
2023-10-10T01:41:23.011Z,3.10
2023-10-10T01:43:58.716Z,3.30
2023-10-10T01:46:28.339Z,2.80
2023-10-10T01:48:58.342Z,3.10
2023-10-10T01:51:25.392Z,3.30
2023-10-10T01:53:56.049Z,3.60
2023-10-10T01:56:27.825Z,2.80
2023-10-10T01:58:55.583Z,5.90
2023-10-10T02:01:24.747Z,3.90
2023-10-10T02:03:54.598Z,4.10
2023-10-10T02:06:26.314Z,5.40
2023-10-10T02:08:52.885Z,4.90
2023-10-10T02:11:23.040Z,4.20
2023-10-10T02:13:51.222Z,6.50
2023-10-10T02:16:19.427Z,5.60
2023-10-10T02:18:51.673Z,2.60
2023-10-10T02:21:43.804Z,4.10
2023-10-10T02:24:33.698Z,4.30
2023-10-10T02:27:05.637Z,3.20
2023-10-10T02:29:32.282Z,3.50
2023-10-10T02:32:10.465Z,4.40
2023-10-10T02:34:38.489Z,8.70
2023-10-10T02:37:21.518Z,3.50
2023-10-10T02:40:08.292Z,4.10
2023-10-10T02:42:34.842Z,3.00
2023-10-10T02:45:01.409Z,3.10
2023-10-10T02:47:31.159Z,3.20
2023-10-10T02:50:01.607Z,5.20
2023-10-10T02:52:29.255Z,3.90
2023-10-10T02:54:56.085Z,9.20
2023-10-10T02:57:25.738Z,3.10
2023-10-10T03:00:16.399Z,3.10
2023-10-10T03:02:57.765Z,2.50
2023-10-10T03:05:50.872Z,2.00
2023-10-10T03:08:34.958Z,3.70
2023-10-10T03:11:14.055Z,8.20
2023-10-10T03:14:01.787Z,2.70
2023-10-10T03:16:28.336Z,3.30
2023-10-10T03:18:54.920Z,1.90
2023-10-10T03:21:45.280Z,1.50
2023-10-10T03:24:29.169Z,2.20
2023-10-10T03:27:21.921Z,4.30
2023-10-10T03:29:50.659Z,1.60
2023-10-10T03:32:26.728Z,4.10
2023-10-10T03:34:57.782Z,1.90
2023-10-10T03:37:27.444Z,2.50
2023-10-10T03:40:15.133Z,1.70
2023-10-10T03:43:00.723Z,1.50
2023-10-10T03:45:45.823Z,5.80
2023-10-10T03:48:31.339Z,4.70
2023-10-10T03:51:16.611Z,3.30
2023-10-10T03:54:01.892Z,3.50
2023-10-10T03:56:47.239Z,5.60
2023-10-10T03:59:32.759Z,3.30
2023-10-10T04:02:18.105Z,1.70
2023-10-10T04:05:19.849Z,3.80
2023-10-10T04:08:08.787Z,4.40
2023-10-10T04:10:54.410Z,3.10
2023-10-10T04:13:39.780Z,4.40
2023-10-10T04:16:28.101Z,4.50
2023-10-10T04:19:14.718Z,2.20
2023-10-10T04:22:00.510Z,3.10
2023-10-10T04:24:45.803Z,6.70
2023-10-10T04:27:31.153Z,3.70
2023-10-10T04:30:16.432Z,6.10
2023-10-10T04:33:01.788Z,2.30
2023-10-10T04:35:48.495Z,7.00
2023-10-10T04:38:34.414Z,8.20
2023-10-10T04:41:19.710Z,4.50
2023-10-10T04:44:04.875Z,3.80
2023-10-10T04:46:50.132Z,7.30
2023-10-10T04:49:35.797Z,3.70
2023-10-10T04:52:20.893Z,3.50
2023-10-10T04:55:07.220Z,2.10
2023-10-10T04:57:52.468Z,5.20
2023-10-10T05:00:37.543Z,3.10
2023-10-10T05:03:23.200Z,3.00
2023-10-10T05:06:20.567Z,3.60
2023-10-10T05:09:06.347Z,2.50
2023-10-10T05:11:52.635Z,3.80
2023-10-10T05:14:38.401Z,1.90
2023-10-10T05:17:23.664Z,4.90
2023-10-10T05:20:09.912Z,4.40
2023-10-10T05:22:56.714Z,5.20
2023-10-10T05:25:23.512Z,3.10
2023-10-10T05:27:59.129Z,4.50
2023-10-10T05:30:27.885Z,4.20
2023-10-10T05:33:03.837Z,4.50
2023-10-10T05:35:35.629Z,2.90
2023-10-10T05:38:02.514Z,4.20
2023-10-10T05:40:33.840Z,7.80
2023-10-10T05:43:04.733Z,2.90
2023-10-10T05:45:31.346Z,5.50
2023-10-10T05:48:00.201Z,6.80
2023-10-10T05:50:27.749Z,11.60
2023-10-10T05:52:54.978Z,26.70
2023-10-10T05:55:21.576Z,20.30
2023-10-10T05:57:48.173Z,16.90
2023-10-10T06:00:15.059Z,9.80
2023-10-10T06:02:48.327Z,5.30
2023-10-10T06:05:18.702Z,4.20
2023-10-10T06:07:45.412Z,7.50
2023-10-10T06:10:16.993Z,5.90
2023-10-10T06:12:46.125Z,4.70
2023-10-10T06:15:18.374Z,5.70
2023-10-10T06:17:45.845Z,6.20
2023-10-10T06:20:22.443Z,6.60
2023-10-10T06:22:49.217Z,4.30
2023-10-10T06:25:18.155Z,3.60
2023-10-10T06:27:55.117Z,3.10
2023-10-10T06:30:21.963Z,3.00
2023-10-10T06:32:48.955Z,4.60
2023-10-10T06:35:22.474Z,3.70
2023-10-10T06:37:52.606Z,10.30
2023-10-10T06:40:29.188Z,14.00
2023-10-10T06:42:58.449Z,20.10
2023-10-10T06:45:35.142Z,18.60
2023-10-10T06:48:02.280Z,7.70
2023-10-10T06:50:32.649Z,5.00
2023-10-10T06:53:01.099Z,6.70
2023-10-10T06:55:37.194Z,6.00
2023-10-10T06:58:06.049Z,5.10
2023-10-10T07:00:33.180Z,11.60
2023-10-10T07:03:00.479Z,5.50
2023-10-10T07:05:28.287Z,5.30
2023-10-10T07:07:59.127Z,4.70
2023-10-10T07:10:33.664Z,2.20
2023-10-10T07:13:01.815Z,4.70
2023-10-10T07:15:35.553Z,2.00
2023-10-10T07:18:31.865Z,6.40
2023-10-10T07:21:08.080Z,2.40
2023-10-10T07:23:38.936Z,3.10
2023-10-10T07:26:22.333Z,4.00
2023-10-10T07:28:50.132Z,3.10
2023-10-10T07:31:21.528Z,4.40
2023-10-10T07:33:56.389Z,1.60
2023-10-10T07:36:28.288Z,6.20
2023-10-10T07:39:15.575Z,6.80
2023-10-10T07:41:45.690Z,2.90
2023-10-10T07:44:17.284Z,3.80
2023-10-10T07:47:03.111Z,4.90
2023-10-10T07:49:29.876Z,6.80
2023-10-10T07:52:02.793Z,4.50
2023-10-10T07:54:39.315Z,4.00
2023-10-10T07:57:12.207Z,6.20
2023-10-10T07:59:39.103Z,4.90
2023-10-10T08:02:20.704Z,2.80
2023-10-10T08:04:51.090Z,3.70
2023-10-10T08:07:18.905Z,2.10
2023-10-10T08:09:48.854Z,1.60
2023-10-10T08:12:17.009Z,7.70
2023-10-10T08:14:44.175Z,9.30
2023-10-10T08:17:20.141Z,4.20
2023-10-10T08:19:51.936Z,6.60
2023-10-10T08:22:26.148Z,3.20
2023-10-10T08:24:52.913Z,2.40
2023-10-10T08:27:19.526Z,6.50
2023-10-10T08:29:47.842Z,1.90
2023-10-10T08:32:14.413Z,2.60
2023-10-10T08:34:43.258Z,4.90
2023-10-10T08:37:10.550Z,2.30
2023-10-10T08:39:40.231Z,8.70
2023-10-10T08:42:11.497Z,4.50
2023-10-10T08:44:40.587Z,2.00
2023-10-10T08:47:19.882Z,2.10
2023-10-10T08:49:48.094Z,3.20
2023-10-10T08:52:17.878Z,2.00
2023-10-10T08:54:45.800Z,1.70
2023-10-10T08:57:13.055Z,3.30
2023-10-10T08:59:42.921Z,2.30
2023-10-10T09:02:12.836Z,2.20
2023-10-10T09:04:39.508Z,5.20
2023-10-10T09:07:20.637Z,2.90
2023-10-10T09:10:04.915Z,1.40
2023-10-10T09:12:53.294Z,3.00
2023-10-10T09:15:20.433Z,2.10
2023-10-10T09:17:58.112Z,2.50
2023-10-10T09:20:32.147Z,2.40
2023-10-10T09:25:49.310Z,2.90
2023-10-10T09:28:19.024Z,1.90
2023-10-10T09:30:50.834Z,2.00
2023-10-10T09:33:28.635Z,4.70
2023-10-10T09:36:16.492Z,6.30
2023-10-10T09:38:47.662Z,2.30
2023-10-10T09:41:36.893Z,2.50
2023-10-10T09:44:22.190Z,1.50
2023-10-10T09:47:16.438Z,1.60
2023-10-10T09:49:45.020Z,1.90
2023-10-10T09:52:34.306Z,2.50
2023-10-10T09:55:08.994Z,4.90
2023-10-10T09:57:43.501Z,3.80
2023-10-10T10:00:26.616Z,5.60
2023-10-10T10:02:58.373Z,6.20
2023-10-10T10:05:29.942Z,2.90
2023-10-10T10:08:22.713Z,2.40
2023-10-10T10:11:11.631Z,6.80
2023-10-10T10:14:12.484Z,6.00
2023-10-10T10:16:52.228Z,3.90
2023-10-10T10:19:28.276Z,2.20
2023-10-10T10:22:14.552Z,6.60
2023-10-10T10:24:47.225Z,3.60
2023-10-10T10:27:32.215Z,2.70
2023-10-10T10:30:20.872Z,5.40
2023-10-10T10:32:56.061Z,3.20
2023-10-10T10:36:00.062Z,3.90
2023-10-10T10:38:26.939Z,2.40
2023-10-10T10:41:07.802Z,5.00
2023-10-10T10:43:39.518Z,3.20
2023-10-10T10:46:27.409Z,1.60
2023-10-10T10:49:06.387Z,8.00
2023-10-10T10:51:42.934Z,3.70
2023-10-10T10:54:11.664Z,6.40
2023-10-10T10:56:39.994Z,3.30
2023-10-10T10:59:14.828Z,1.90
2023-10-10T11:01:52.558Z,2.90
2023-10-10T11:04:34.311Z,1.80
2023-10-10T11:07:08.223Z,3.70
2023-10-10T11:09:38.093Z,6.60
2023-10-10T11:12:09.691Z,4.20
2023-10-10T11:14:47.356Z,6.00
2023-10-10T11:17:20.461Z,3.90
2023-10-10T11:19:48.761Z,5.30
2023-10-10T11:22:36.423Z,4.00
2023-10-10T11:25:12.334Z,4.00
2023-10-10T11:27:45.617Z,2.00
2023-10-10T11:30:24.929Z,4.20
2023-10-10T11:33:05.829Z,4.00
2023-10-10T11:35:35.322Z,5.70
2023-10-10T11:38:09.698Z,1.70
2023-10-10T11:40:37.548Z,2.60
2023-10-10T11:43:06.686Z,5.30
2023-10-10T11:45:41.973Z,3.20
2023-10-10T11:48:13.253Z,6.40
2023-10-10T11:50:43.942Z,4.00
2023-10-10T11:53:24.546Z,3.10
2023-10-10T11:55:56.635Z,4.50
2023-10-10T11:58:36.388Z,2.20
2023-10-10T12:01:06.347Z,3.50
2023-10-10T12:03:40.388Z,4.50
2023-10-10T12:06:14.909Z,2.70
2023-10-10T12:08:49.745Z,5.30
2023-10-10T12:11:22.320Z,4.60
2023-10-10T12:13:51.355Z,1.80
2023-10-10T12:16:24.117Z,2.20
2023-10-10T12:18:51.579Z,3.30
2023-10-10T12:21:22.426Z,4.80
2023-10-10T12:24:02.146Z,5.40
2023-10-10T12:26:30.266Z,9.20
2023-10-10T12:28:56.801Z,4.80
2023-10-10T12:31:23.998Z,2.50
2023-10-10T12:33:53.842Z,9.50
2023-10-10T12:36:29.532Z,6.10
2023-10-10T12:38:58.303Z,5.20
2023-10-10T12:41:25.319Z,7.30
2023-10-10T12:43:51.885Z,4.80
2023-10-10T12:46:21.198Z,5.80
2023-10-10T12:48:51.663Z,6.70
2023-10-10T12:51:20.654Z,3.90
2023-10-10T12:53:47.289Z,1.90
2023-10-10T12:56:22.254Z,3.00
2023-10-10T12:59:08.223Z,1.10
2023-10-10T13:01:47.849Z,1.40
2023-10-10T13:04:18.399Z,2.90
2023-10-10T13:06:52.246Z,2.80
2023-10-10T13:09:19.703Z,2.30
2023-10-10T13:11:46.565Z,1.70
2023-10-10T13:14:16.025Z,4.60
2023-10-10T13:16:42.692Z,2.30
2023-10-10T13:19:14.609Z,2.30
2023-10-10T13:21:43.321Z,3.90
2023-10-10T13:24:12.330Z,2.70
2023-10-10T13:26:40.757Z,1.00
2023-10-10T13:29:09.246Z,3.80
2023-10-10T13:31:38.556Z,2.00
2023-10-10T13:34:05.431Z,0.60
2023-10-10T13:36:35.063Z,1.90
2023-10-10T13:39:07.826Z,0.80
2023-10-10T13:41:36.689Z,0.60
2023-10-10T13:44:04.651Z,0.70
2023-10-10T13:46:35.397Z,0.60
2023-10-10T13:49:09.499Z,0.90
2023-10-10T13:54:08.974Z,0.70
2023-10-10T13:56:36.240Z,1.60
2023-10-10T13:59:05.514Z,1.00
2023-10-10T14:01:37.428Z,1.20
2023-10-10T14:04:26.840Z,1.60
2023-10-10T14:06:55.065Z,0.70
2023-10-10T14:09:31.982Z,0.80
2023-10-10T14:12:01.998Z,0.50
2023-10-10T14:14:32.159Z,1.50
2023-10-10T14:16:59.742Z,0.50
2023-10-10T14:19:26.725Z,3.90
2023-10-10T14:21:54.242Z,0.90
2023-10-10T14:24:22.124Z,3.20
2023-10-10T14:26:49.490Z,1.50
2023-10-10T14:29:17.306Z,0.80
2023-10-10T14:31:45.892Z,1.10
2023-10-10T14:34:25.256Z,1.50
2023-10-10T14:36:54.078Z,1.10
2023-10-10T14:39:32.872Z,1.40
2023-10-10T14:41:59.742Z,1.20
2023-10-10T14:44:29.188Z,0.90
2023-10-10T14:46:58.474Z,2.20
2023-10-10T14:49:31.317Z,1.70
2023-10-10T14:52:05.085Z,3.70
2023-10-10T14:54:41.633Z,0.90
2023-10-10T14:57:16.584Z,1.10
2023-10-10T14:59:43.610Z,2.10
2023-10-10T15:02:13.011Z,4.40
2023-10-10T15:04:40.508Z,3.00
2023-10-10T15:07:07.374Z,1.60
2023-10-10T15:09:36.601Z,2.00
2023-10-10T15:12:03.998Z,1.40
2023-10-10T15:14:34.929Z,2.00
2023-10-10T15:17:05.000Z,3.80
2023-10-10T15:19:32.746Z,2.20
2023-10-10T15:21:59.706Z,1.50
2023-10-10T15:24:27.612Z,1.40
2023-10-10T15:26:56.624Z,2.10
2023-10-10T15:29:23.349Z,0.80
2023-10-10T15:31:51.804Z,2.60
2023-10-10T15:34:18.966Z,0.80
2023-10-10T15:36:46.395Z,2.30
2023-10-10T15:39:13.900Z,2.80
2023-10-10T15:41:43.012Z,1.60
2023-10-10T15:44:12.672Z,2.20
2023-10-10T15:46:43.024Z,1.40
2023-10-10T15:49:25.237Z,1.30
2023-10-10T15:52:04.415Z,1.60
2023-10-10T15:54:34.235Z,1.20
2023-10-10T15:57:09.051Z,1.10
2023-10-10T15:59:36.509Z,1.40
2023-10-10T16:02:08.890Z,1.70
2023-10-10T16:04:35.656Z,0.80
2023-10-10T16:07:05.535Z,1.60
2023-10-10T16:09:32.269Z,1.50
2023-10-10T16:11:58.955Z,1.80
2023-10-10T16:14:26.303Z,1.40
2023-10-10T16:16:55.262Z,1.70
2023-10-10T16:19:26.752Z,2.00
2023-10-10T16:21:55.680Z,0.90
2023-10-10T16:24:28.158Z,0.70
2023-10-10T16:26:59.611Z,1.50
2023-10-10T16:29:33.409Z,0.70
2023-10-10T16:32:08.874Z,1.30
2023-10-10T16:34:40.117Z,1.80
2023-10-10T16:37:13.579Z,0.90
2023-10-10T16:39:44.810Z,0.70
2023-10-10T16:42:12.100Z,1.40
2023-10-10T16:44:39.951Z,0.90
2023-10-10T16:47:06.653Z,1.40
2023-10-10T16:49:37.472Z,0.60
2023-10-10T16:52:06.352Z,0.70
2023-10-10T16:54:35.963Z,1.50
2023-10-10T16:57:04.194Z,1.70
2023-10-10T16:59:30.892Z,1.20
2023-10-10T17:01:58.131Z,3.10
2023-10-10T17:04:25.128Z,10.70
2023-10-10T17:06:51.768Z,2.60
2023-10-10T17:09:18.452Z,1.20
2023-10-10T17:11:50.813Z,1.10
2023-10-10T17:14:19.360Z,2.70
2023-10-10T17:16:45.843Z,1.90
2023-10-10T17:19:17.309Z,2.30
2023-10-10T17:21:48.098Z,1.10
2023-10-10T17:24:22.065Z,0.90
2023-10-10T17:29:16.379Z,1.90
2023-10-10T17:31:43.791Z,1.80
2023-10-10T17:34:17.275Z,1.20
2023-10-10T17:36:44.044Z,1.10
2023-10-10T17:39:15.749Z,1.10
2023-10-10T17:41:43.132Z,1.40
2023-10-10T17:44:09.628Z,1.80
2023-10-10T17:46:36.305Z,1.90
2023-10-10T17:49:02.991Z,4.60
2023-10-10T17:51:33.490Z,3.70
2023-10-10T17:54:01.708Z,5.60
2023-10-10T17:56:29.146Z,5.80
2023-10-10T17:58:55.724Z,2.70
2023-10-10T18:01:23.083Z,7.70
2023-10-10T18:03:54.768Z,3.70
2023-10-10T18:06:24.042Z,5.00
2023-10-10T18:08:54.605Z,2.10
2023-10-10T18:11:26.379Z,2.50
2023-10-10T18:13:53.267Z,1.80
2023-10-10T18:16:23.234Z,1.70
2023-10-10T18:18:52.258Z,1.90
2023-10-10T18:21:21.849Z,4.80
2023-10-10T18:23:50.626Z,5.70
2023-10-10T18:26:23.325Z,2.40
2023-10-10T18:28:54.734Z,3.30
2023-10-10T18:31:30.040Z,2.90
2023-10-10T18:33:57.341Z,4.00
2023-10-10T18:36:24.646Z,4.40
2023-10-10T18:38:51.754Z,2.40
2023-10-10T18:41:23.626Z,2.50
2023-10-10T18:43:51.679Z,3.00
2023-10-10T18:46:18.312Z,1.90
2023-10-10T18:48:45.998Z,4.30
2023-10-10T18:51:16.492Z,2.30
2023-10-10T18:53:48.690Z,2.50
2023-10-10T18:56:15.589Z,2.80
2023-10-10T18:58:42.632Z,3.30
2023-10-10T19:01:11.839Z,2.50
2023-10-10T19:03:48.625Z,2.70
2023-10-10T19:06:20.625Z,5.90
2023-10-10T19:08:48.907Z,2.60
2023-10-10T19:11:23.932Z,9.80
2023-10-10T19:13:50.837Z,4.40
2023-10-10T19:16:19.021Z,2.30
2023-10-10T19:18:46.682Z,4.20
2023-10-10T19:21:16.208Z,4.90
2023-10-10T19:23:44.161Z,4.50
2023-10-10T19:26:13.133Z,4.80
2023-10-10T19:28:42.211Z,3.50
2023-10-10T19:31:08.889Z,2.00
2023-10-10T19:33:35.841Z,2.20
2023-10-10T19:36:02.549Z,1.70
2023-10-10T19:38:29.197Z,2.60
2023-10-10T19:41:06.094Z,2.20
2023-10-10T19:43:39.825Z,3.40
2023-10-10T19:46:13.066Z,2.20
2023-10-10T19:48:40.791Z,1.90
2023-10-10T19:51:17.279Z,2.50
2023-10-10T19:53:49.530Z,2.70
2023-10-10T19:56:16.234Z,1.90
2023-10-10T19:58:45.836Z,3.30
2023-10-10T20:01:16.442Z,4.50
2023-10-10T20:03:43.138Z,1.90
2023-10-10T20:06:20.511Z,2.50
2023-10-10T20:08:48.825Z,5.00
2023-10-10T20:11:15.637Z,2.60
2023-10-10T20:13:43.369Z,2.00
2023-10-10T20:16:15.625Z,1.70
2023-10-10T20:18:45.832Z,2.00
2023-10-10T20:21:16.143Z,2.60
2023-10-10T20:23:43.351Z,3.30
2023-10-10T20:26:20.404Z,2.90
2023-10-10T20:28:48.097Z,2.50
2023-10-10T20:31:20.057Z,3.00
2023-10-10T20:33:50.801Z,1.50
2023-10-10T20:36:17.952Z,1.50
2023-10-10T20:38:45.195Z,3.20
2023-10-10T20:41:14.498Z,2.40
2023-10-10T20:43:42.713Z,2.70
2023-10-10T20:46:18.498Z,3.50
2023-10-10T20:48:48.550Z,2.70
2023-10-10T20:51:15.565Z,2.90
2023-10-10T20:53:43.970Z,3.80
2023-10-10T20:56:13.787Z,3.10
2023-10-10T20:58:40.551Z,2.10
2023-10-10T21:01:16.338Z,4.90
2023-10-10T21:03:43.159Z,5.40
2023-10-10T21:06:11.917Z,4.80
2023-10-10T21:08:39.482Z,3.20
2023-10-10T21:11:10.321Z,6.60
2023-10-10T21:13:37.522Z,3.30
2023-10-10T21:16:15.157Z,2.60
2023-10-10T21:18:43.194Z,3.70
2023-10-10T21:21:11.376Z,1.50
2023-10-10T21:23:39.151Z,3.20
2023-10-10T21:26:15.854Z,3.60
2023-10-10T21:28:43.557Z,2.80
2023-10-10T21:31:11.638Z,5.10
2023-10-10T21:33:44.250Z,2.40
2023-10-10T21:36:11.979Z,3.00
2023-10-10T21:38:41.002Z,4.20
2023-10-10T21:41:09.903Z,2.10
2023-10-10T21:43:37.658Z,3.20
2023-10-10T21:46:06.551Z,3.60
2023-10-10T21:48:33.308Z,2.00
2023-10-10T21:51:02.411Z,5.50
2023-10-10T21:53:31.187Z,1.60
2023-10-10T21:56:00.159Z,1.90
2023-10-10T21:58:27.033Z,6.20
2023-10-10T22:00:55.926Z,1.30
2023-10-10T22:03:23.591Z,2.40
2023-10-10T22:05:50.382Z,2.70
2023-10-10T22:08:17.233Z,7.70
2023-10-10T22:10:45.807Z,5.70
2023-10-10T22:13:15.414Z,3.30
2023-10-10T22:15:42.748Z,3.50
2023-10-10T22:18:12.063Z,3.30
2023-10-10T22:20:39.487Z,6.70
2023-10-10T22:23:06.318Z,4.60
2023-10-10T22:25:34.587Z,5.00
2023-10-10T22:28:01.937Z,5.00
2023-10-10T22:30:33.565Z,4.10
2023-10-10T22:33:03.141Z,4.70
2023-10-10T22:35:33.088Z,3.50
2023-10-10T22:38:00.729Z,4.70
2023-10-10T22:40:27.903Z,2.00
2023-10-10T22:42:57.061Z,3.50
2023-10-10T22:45:24.042Z,3.50
2023-10-10T22:47:57.283Z,4.20
2023-10-10T22:50:30.896Z,5.00
2023-10-10T22:53:01.548Z,7.00
2023-10-10T22:55:33.806Z,7.50
2023-10-10T22:58:06.836Z,6.90
2023-10-10T23:00:40.339Z,5.80
2023-10-10T23:05:42.416Z,7.80
2023-10-10T23:08:09.271Z,7.40
2023-10-10T23:10:39.595Z,4.40
2023-10-10T23:13:13.313Z,3.60
2023-10-10T23:18:10.613Z,3.00
2023-10-10T23:20:38.350Z,2.90
2023-10-10T23:23:08.997Z,5.70
2023-10-10T23:25:36.050Z,1.70
2023-10-10T23:28:04.149Z,2.90
2023-10-10T23:30:33.651Z,3.20
2023-10-10T23:33:03.227Z,2.80
2023-10-10T23:35:30.569Z,5.70
2023-10-10T23:38:01.061Z,5.90
2023-10-10T23:40:46.786Z,5.50
2023-10-10T23:43:19.720Z,6.50
2023-10-10T23:45:57.347Z,9.10
2023-10-10T23:48:33.147Z,7.00
2023-10-10T23:51:00.061Z,7.80
2023-10-10T23:53:26.931Z,7.70
2023-10-10T23:55:59.429Z,10.00
2023-10-10T23:58:26.314Z,8.80
